createdAt,value
2019-01-22T00:00:13.968Z,94.00
2019-01-22T00:01:13.956Z,93.57
2019-01-22T00:02:13.956Z,94.21
2019-01-22T00:03:13.984Z,94.21
2019-01-22T00:04:13.920Z,94.21
2019-01-22T00:05:13.958Z,94.74
2019-01-22T00:06:13.927Z,94.74
2019-01-22T00:07:13.903Z,94.53
2019-01-22T00:08:13.876Z,94.57
2019-01-22T00:09:13.907Z,94.42
2019-01-22T00:10:13.894Z,94.21
2019-01-22T00:11:13.868Z,94.46
2019-01-22T00:12:13.846Z,94.57
2019-01-22T00:13:13.831Z,94.53
2019-01-22T00:14:13.827Z,94.36
2019-01-22T00:15:13.803Z,94.36
2019-01-22T00:16:13.849Z,94.25
2019-01-22T00:17:13.850Z,94.25
2019-01-22T00:18:13.783Z,94.32
2019-01-22T00:19:13.775Z,94.21
2019-01-22T00:20:13.778Z,94.36
2019-01-22T00:21:13.745Z,94.32
2019-01-22T00:22:13.760Z,94.42
2019-01-22T00:23:13.731Z,94.32
2019-01-22T00:24:13.715Z,94.53
2019-01-22T00:25:13.724Z,94.21
2019-01-22T00:26:13.681Z,94.25
2019-01-22T00:27:13.677Z,94.25
2019-01-22T00:28:13.726Z,94.36
2019-01-22T00:29:13.672Z,94.36
2019-01-22T00:30:13.686Z,94.25
2019-01-22T00:31:13.659Z,94.36
2019-01-22T00:32:13.622Z,94.36
2019-01-22T00:33:13.634Z,94.46
2019-01-22T00:34:13.643Z,94.36
2019-01-22T00:35:13.609Z,94.36
2019-01-22T00:36:13.587Z,94.25
2019-01-22T00:37:13.577Z,94.15
2019-01-22T00:38:13.556Z,94.36
2019-01-22T00:39:13.595Z,94.46
2019-01-22T00:40:13.601Z,94.78
2019-01-22T00:41:13.555Z,94.78
2019-01-22T00:42:13.522Z,94.68
2019-01-22T00:43:13.543Z,94.78
2019-01-22T00:44:13.499Z,94.99
2019-01-22T00:45:13.495Z,94.89
2019-01-22T00:46:13.521Z,94.68
2019-01-22T00:47:13.469Z,94.61
2019-01-22T00:48:13.494Z,94.78
2019-01-22T00:49:13.449Z,95.14
2019-01-22T00:50:13.431Z,94.99
2019-01-22T00:51:13.442Z,94.68
2019-01-22T00:52:13.456Z,94.68
2019-01-22T00:53:13.408Z,94.68
2019-01-22T00:54:13.419Z,94.36
2019-01-22T00:55:13.384Z,94.36
2019-01-22T00:56:13.398Z,94.46
2019-01-22T00:57:13.373Z,94.25
2019-01-22T00:58:13.406Z,94.51
2019-01-22T00:59:13.349Z,94.78
2019-01-22T01:00:13.331Z,94.78
2019-01-22T01:01:13.322Z,94.82
2019-01-22T01:02:13.380Z,95.03
2019-01-22T01:03:27.958Z,94.93
2019-01-22T01:04:13.347Z,94.82
2019-01-22T01:05:13.280Z,95.03
2019-01-22T01:06:13.286Z,94.93
2019-01-22T01:07:13.264Z,95.25
2019-01-22T01:08:13.261Z,95.78
2019-01-22T01:09:13.270Z,95.67
2019-01-22T01:10:13.230Z,95.46
2019-01-22T01:11:13.215Z,95.35
2019-01-22T01:12:13.214Z,95.46
2019-01-22T01:13:13.202Z,95.78
2019-01-22T01:14:13.205Z,95.88
2019-01-22T01:15:13.200Z,95.67
2019-01-22T01:16:13.230Z,95.50
2019-01-22T01:17:13.151Z,95.46
2019-01-22T01:18:13.145Z,95.35
2019-01-22T01:19:13.150Z,95.14
2019-01-22T01:20:13.111Z,95.35
2019-01-22T01:21:13.140Z,95.35
2019-01-22T01:22:13.120Z,95.46
2019-01-22T01:23:16.989Z,95.46
2019-01-22T01:24:13.084Z,95.50
2019-01-22T01:25:13.060Z,95.39
2019-01-22T01:26:13.067Z,95.25
2019-01-22T01:27:13.047Z,95.67
2019-01-22T01:28:13.037Z,95.67
2019-01-22T01:29:13.076Z,95.67
2019-01-22T01:30:13.015Z,95.46
2019-01-22T01:31:13.000Z,95.88
2019-01-22T01:32:13.020Z,95.88
2019-01-22T01:33:12.982Z,95.67
2019-01-22T01:34:12.968Z,95.56
2019-01-22T01:35:12.989Z,95.39
2019-01-22T01:36:12.958Z,95.35
2019-01-22T01:37:12.950Z,95.14
2019-01-22T01:38:12.952Z,95.25
2019-01-22T01:39:12.928Z,94.93
2019-01-22T01:40:12.907Z,95.03
2019-01-22T01:41:12.923Z,94.82
2019-01-22T01:42:12.907Z,94.82
2019-01-22T01:43:12.894Z,94.82
2019-01-22T01:44:12.863Z,94.61
2019-01-22T01:45:12.851Z,94.51
2019-01-22T01:46:12.856Z,94.72
2019-01-22T01:47:12.846Z,94.78
2019-01-22T01:48:12.827Z,94.40
2019-01-22T01:49:12.852Z,94.36
2019-01-22T01:50:12.807Z,94.61
2019-01-22T01:51:12.783Z,94.36
2019-01-22T01:52:12.792Z,94.57
2019-01-22T01:53:12.766Z,94.57
2019-01-22T01:54:12.761Z,94.04
2019-01-22T01:55:12.780Z,94.15
2019-01-22T01:56:12.745Z,94.04
2019-01-22T01:57:12.730Z,93.93
2019-01-22T01:58:12.711Z,93.83
2019-01-22T01:59:12.701Z,93.93
2019-01-22T02:00:12.700Z,93.62
2019-01-22T02:01:12.713Z,93.93
2019-01-22T02:02:12.669Z,93.83
2019-01-22T02:03:12.695Z,93.83
2019-01-22T02:04:12.652Z,93.93
2019-01-22T02:05:12.664Z,93.73
2019-01-22T02:06:12.639Z,93.30
2019-01-22T02:07:12.638Z,93.30
2019-01-22T02:08:12.611Z,93.73
2019-01-22T02:09:12.621Z,93.93
2019-01-22T02:10:12.608Z,93.73
2019-01-22T02:11:12.583Z,93.93
2019-01-22T02:12:12.583Z,93.55
2019-01-22T02:13:12.548Z,93.98
2019-01-22T02:14:12.542Z,94.04
2019-01-22T02:15:12.555Z,93.83
2019-01-22T02:16:12.558Z,93.98
2019-01-22T02:17:12.518Z,93.77
2019-01-22T02:18:12.518Z,93.77
2019-01-22T02:19:12.489Z,94.09
2019-01-22T02:20:12.478Z,94.09
2019-01-22T02:21:12.476Z,94.19
2019-01-22T02:22:12.487Z,94.29
2019-01-22T02:23:12.447Z,94.61
2019-01-22T02:24:12.454Z,94.09
2019-01-22T02:25:12.423Z,94.72
2019-01-22T02:26:12.417Z,94.61
2019-01-22T02:27:12.406Z,93.98
2019-01-22T02:28:12.441Z,94.29
2019-01-22T02:29:12.386Z,94.15
2019-01-22T02:30:12.391Z,93.66
2019-01-22T02:31:12.390Z,94.46
2019-01-22T02:32:12.356Z,94.51
2019-01-22T02:33:12.372Z,94.36
2019-01-22T02:34:12.336Z,94.36
2019-01-22T02:35:12.325Z,94.36
2019-01-22T02:36:12.323Z,93.89
2019-01-22T02:37:12.306Z,93.62
2019-01-22T02:38:12.334Z,93.05
2019-01-22T02:39:12.362Z,93.26
2019-01-22T02:40:12.282Z,92.41
2019-01-22T02:41:12.272Z,92.10
2019-01-22T02:42:12.269Z,92.52
2019-01-22T02:43:12.247Z,92.63
2019-01-22T02:44:12.231Z,92.20
2019-01-22T02:45:12.275Z,92.52
2019-01-22T02:46:12.242Z,91.95
2019-01-22T02:47:12.243Z,91.63
2019-01-22T02:48:12.225Z,91.85
2019-01-22T02:49:12.174Z,91.42
2019-01-22T02:50:12.160Z,91.85
2019-01-22T02:51:12.178Z,91.11
2019-01-22T02:52:12.142Z,90.89
2019-01-22T02:53:12.169Z,91.06
2019-01-22T02:54:12.125Z,91.21
2019-01-22T02:55:12.107Z,90.85
2019-01-22T02:56:12.101Z,90.85
2019-01-22T02:57:12.092Z,90.43
2019-01-22T02:58:12.095Z,90.11
2019-01-22T02:59:12.104Z,90.01
2019-01-22T03:00:12.058Z,90.22
2019-01-22T03:01:12.101Z,90.43
2019-01-22T03:02:12.034Z,90.33
2019-01-22T03:03:12.025Z,90.33
2019-01-22T03:04:12.049Z,90.01
2019-01-22T03:05:12.049Z,90.54
2019-01-22T03:06:11.996Z,90.22
2019-01-22T03:07:11.981Z,90.08
2019-01-22T03:08:11.976Z,89.59
2019-01-22T03:09:11.964Z,89.59
2019-01-22T03:10:11.965Z,89.48
2019-01-22T03:11:12.001Z,89.17
2019-01-22T03:12:11.929Z,89.27
2019-01-22T03:13:11.933Z,89.59
2019-01-22T03:14:11.927Z,90.54
2019-01-22T03:15:11.908Z,90.22
2019-01-22T03:16:11.892Z,90.22
2019-01-22T03:17:11.920Z,90.22
2019-01-22T03:18:11.930Z,90.33
2019-01-22T03:19:11.856Z,90.33
2019-01-22T03:20:11.841Z,89.76
2019-01-22T03:21:11.848Z,89.27
2019-01-22T03:22:11.827Z,89.34
2019-01-22T03:23:11.856Z,89.17
2019-01-22T03:24:11.817Z,89.37
2019-01-22T03:25:11.787Z,89.34
2019-01-22T03:26:11.784Z,89.23
2019-01-22T03:27:11.826Z,89.34
2019-01-22T03:28:11.768Z,89.12
2019-01-22T03:29:11.915Z,89.06
2019-01-22T03:30:11.757Z,88.92
2019-01-22T03:31:11.737Z,89.02
2019-01-22T03:32:11.726Z,88.92
2019-01-22T03:33:11.757Z,89.17
2019-01-22T03:34:11.705Z,88.75
2019-01-22T03:35:11.735Z,88.53
2019-01-22T03:36:11.689Z,89.06
2019-01-22T03:37:11.701Z,88.64
2019-01-22T03:38:11.662Z,89.27
2019-01-22T03:39:11.651Z,89.17
2019-01-22T03:40:11.630Z,89.48
2019-01-22T03:41:11.669Z,89.79
2019-01-22T03:42:11.619Z,90.33
2019-01-22T03:43:11.614Z,89.69
2019-01-22T03:44:11.587Z,90.26
2019-01-22T03:45:11.591Z,90.26
2019-01-22T03:46:11.581Z,90.26
2019-01-22T03:47:11.629Z,90.58
2019-01-22T03:48:11.555Z,90.37
2019-01-22T03:49:11.545Z,90.26
2019-01-22T03:50:11.529Z,90.26
2019-01-22T03:51:11.519Z,90.26
2019-01-22T03:52:11.518Z,90.05
2019-01-22T03:53:11.533Z,90.20
2019-01-22T03:54:11.499Z,90.26
2019-01-22T03:55:11.477Z,90.52
2019-01-22T03:56:11.470Z,90.52
2019-01-22T03:57:11.454Z,90.83
2019-01-22T03:58:11.441Z,90.62
2019-01-22T03:59:11.461Z,90.72
2019-01-22T04:00:11.441Z,90.72
2019-01-22T04:01:11.407Z,90.94
2019-01-22T04:02:11.399Z,91.08
2019-01-22T04:03:11.395Z,91.19
2019-01-22T04:04:11.388Z,91.36
2019-01-22T04:05:11.401Z,91.93
2019-01-22T04:06:11.365Z,91.82
2019-01-22T04:07:11.362Z,92.03
2019-01-22T04:08:11.343Z,91.82
2019-01-22T04:09:11.342Z,92.03
2019-01-22T04:10:11.356Z,92.35
2019-01-22T04:11:11.380Z,92.24
2019-01-22T04:12:11.341Z,91.82
2019-01-22T04:13:11.290Z,92.18
2019-01-22T04:14:11.279Z,92.03
2019-01-22T04:15:11.270Z,91.86
2019-01-22T04:16:11.268Z,91.86
2019-01-22T04:17:11.337Z,91.33
2019-01-22T04:18:11.235Z,92.29
2019-01-22T04:19:11.231Z,92.33
2019-01-22T04:20:11.214Z,92.29
2019-01-22T04:21:11.226Z,92.18
2019-01-22T04:22:11.233Z,92.29
2019-01-22T04:23:11.217Z,92.50
2019-01-22T04:24:11.168Z,92.50
2019-01-22T04:25:11.183Z,92.50
2019-01-22T04:26:11.150Z,92.65
2019-01-22T04:27:11.181Z,92.18
2019-01-22T04:28:11.130Z,92.29
2019-01-22T04:29:11.121Z,92.29
2019-01-22T04:30:11.155Z,92.39
2019-01-22T04:31:11.102Z,92.65
2019-01-22T04:32:11.088Z,92.50
2019-01-22T04:33:11.109Z,92.65
2019-01-22T04:34:17.926Z,92.86
2019-01-22T04:35:11.043Z,92.92
2019-01-22T04:36:11.093Z,93.13
2019-01-22T04:37:11.029Z,93.24
2019-01-22T04:38:11.025Z,93.24
2019-01-22T04:39:11.015Z,92.92
2019-01-22T04:40:11.011Z,92.65
2019-01-22T04:41:10.995Z,92.75
2019-01-22T04:42:11.025Z,92.75
2019-01-22T04:43:10.966Z,92.60
2019-01-22T04:44:10.957Z,92.71
2019-01-22T04:45:10.956Z,92.60
2019-01-22T04:46:10.965Z,92.60
2019-01-22T04:47:10.958Z,92.60
2019-01-22T04:48:10.962Z,92.07
2019-01-22T04:49:10.945Z,91.82
2019-01-22T04:50:10.895Z,91.72
2019-01-22T04:51:10.886Z,91.82
2019-01-22T04:52:10.891Z,91.40
2019-01-22T04:53:10.855Z,91.08
2019-01-22T04:54:10.911Z,91.14
2019-01-22T04:55:10.843Z,90.94
2019-01-22T04:56:10.866Z,90.52
2019-01-22T04:57:10.826Z,90.20
2019-01-22T04:58:10.831Z,90.20
2019-01-22T04:59:10.828Z,89.56
2019-01-22T05:00:10.815Z,89.35
2019-01-22T05:01:10.784Z,89.03
2019-01-22T05:02:10.804Z,88.93
2019-01-22T05:03:10.769Z,89.35
2019-01-22T05:04:10.756Z,88.82
2019-01-22T05:05:10.733Z,89.03
2019-01-22T05:06:10.792Z,88.82
2019-01-22T05:07:10.723Z,89.00
2019-01-22T05:08:10.749Z,89.00
2019-01-22T05:09:10.715Z,88.46
2019-01-22T05:10:10.697Z,87.98
2019-01-22T05:11:10.667Z,87.77
2019-01-22T05:12:10.699Z,88.51
2019-01-22T05:13:10.744Z,88.61
2019-01-22T05:14:10.675Z,88.40
2019-01-22T05:15:10.637Z,88.19
2019-01-22T05:16:10.620Z,88.71
2019-01-22T05:17:10.614Z,88.82
2019-01-22T05:18:10.631Z,89.18
2019-01-22T05:19:10.620Z,89.18
2019-01-22T05:20:10.613Z,89.39
2019-01-22T05:21:10.574Z,89.77
2019-01-22T05:22:10.556Z,90.30
2019-01-22T05:23:10.544Z,90.41
2019-01-22T05:24:17.455Z,89.67
2019-01-22T05:25:11.555Z,89.03
2019-01-22T05:26:10.519Z,88.71
2019-01-22T05:27:10.506Z,88.71
2019-01-22T05:28:10.684Z,88.54
2019-01-22T05:29:10.472Z,88.97
2019-01-22T05:30:10.505Z,88.97
2019-01-22T05:31:10.450Z,89.39
2019-01-22T05:32:10.458Z,89.43
2019-01-22T05:33:10.437Z,89.61
2019-01-22T05:34:10.424Z,89.43
2019-01-22T05:35:10.414Z,89.54
2019-01-22T05:36:10.453Z,89.32
2019-01-22T05:37:10.398Z,89.54
2019-01-22T05:38:10.381Z,89.43
2019-01-22T05:39:10.382Z,89.64
2019-01-22T05:40:10.378Z,89.86
2019-01-22T05:41:10.399Z,89.75
2019-01-22T05:42:10.371Z,90.38
2019-01-22T05:43:11.635Z,89.86
2019-01-22T05:44:10.513Z,89.61
2019-01-22T05:45:10.337Z,89.54
2019-01-22T05:46:10.299Z,89.43
2019-01-22T05:47:10.334Z,89.50
2019-01-22T05:48:13.467Z,89.39
2019-01-22T05:49:10.269Z,89.39
2019-01-22T05:50:10.256Z,89.39
2019-01-22T05:51:10.269Z,89.29
2019-01-22T05:52:10.251Z,88.76
2019-01-22T05:53:10.262Z,88.86
2019-01-22T05:54:10.227Z,88.65
2019-01-22T05:55:10.231Z,89.07
2019-01-22T05:57:19.965Z,88.76
2019-01-22T05:58:19.971Z,89.07
2019-01-22T05:59:19.953Z,88.61
2019-01-22T06:00:19.938Z,88.23
2019-01-22T06:01:19.919Z,88.23
2019-01-22T06:02:19.907Z,88.23
2019-01-22T06:03:19.900Z,88.44
2019-01-22T06:04:19.904Z,88.54
2019-01-22T06:05:19.953Z,88.54
2019-01-22T06:06:19.901Z,88.65
2019-01-22T06:07:19.864Z,88.44
2019-01-22T06:08:19.868Z,88.23
2019-01-22T06:09:19.865Z,88.34
2019-01-22T06:10:19.830Z,88.48
2019-01-22T06:11:19.817Z,88.76
2019-01-22T06:12:19.837Z,89.07
2019-01-22T06:13:19.812Z,88.65
2019-01-22T06:14:19.792Z,88.65
2019-01-22T06:15:19.780Z,88.54
2019-01-22T06:16:19.773Z,88.44
2019-01-22T06:17:19.772Z,88.65
2019-01-22T06:18:19.782Z,88.65
2019-01-22T06:19:19.748Z,88.40
2019-01-22T06:20:19.742Z,88.44
2019-01-22T06:21:19.723Z,88.61
2019-01-22T06:22:19.711Z,88.97
2019-01-22T06:23:19.747Z,89.03
2019-01-22T06:24:19.693Z,89.03
2019-01-22T06:25:19.682Z,88.82
2019-01-22T06:26:19.668Z,88.61
2019-01-22T06:27:19.651Z,88.40
2019-01-22T06:28:19.656Z,88.09
2019-01-22T06:29:19.684Z,88.19
2019-01-22T06:30:19.639Z,88.19
2019-01-22T06:31:19.615Z,88.40
2019-01-22T06:32:19.612Z,88.40
2019-01-22T06:33:19.610Z,88.29
2019-01-22T06:34:19.577Z,88.40
2019-01-22T06:35:19.596Z,88.19
2019-01-22T06:36:19.569Z,88.40
2019-01-22T06:37:19.549Z,88.19
2019-01-22T06:38:19.540Z,88.51
2019-01-22T06:39:19.524Z,88.29
2019-01-22T06:40:19.514Z,88.19
2019-01-22T06:41:19.540Z,88.29
2019-01-22T06:42:19.498Z,88.29
2019-01-22T06:43:19.486Z,88.40
2019-01-22T06:44:19.491Z,88.15
2019-01-22T06:45:19.466Z,88.36
2019-01-22T06:46:19.461Z,88.15
2019-01-22T06:47:19.493Z,88.36
2019-01-22T06:48:19.436Z,88.57
2019-01-22T06:49:19.429Z,87.84
2019-01-22T06:50:19.427Z,87.84
2019-01-22T06:51:19.426Z,87.84
2019-01-22T06:52:19.397Z,87.84
2019-01-22T06:53:20.890Z,87.52
2019-01-22T06:54:19.368Z,87.94
2019-01-22T06:55:19.375Z,88.04
2019-01-22T06:56:19.379Z,87.69
2019-01-22T06:57:19.330Z,87.90
2019-01-22T06:58:19.348Z,87.90
2019-01-22T06:59:19.312Z,87.52
2019-01-22T07:00:19.332Z,87.84
2019-01-22T07:01:19.299Z,88.04
2019-01-22T07:02:19.277Z,88.15
2019-01-22T07:03:19.276Z,88.04
2019-01-22T07:04:19.338Z,87.79
2019-01-22T07:05:19.253Z,88.04
2019-01-22T07:06:19.281Z,88.04
2019-01-22T07:07:19.242Z,88.15
2019-01-22T07:08:19.230Z,88.15
2019-01-22T07:09:19.206Z,87.84
2019-01-22T07:10:19.218Z,87.73
2019-01-22T07:11:19.188Z,87.77
2019-01-22T07:12:19.190Z,88.57
2019-01-22T07:13:19.177Z,88.26
2019-01-22T07:14:19.178Z,88.36
2019-01-22T07:15:19.165Z,88.04
2019-01-22T07:16:19.137Z,88.15
2019-01-22T07:17:19.136Z,88.57
2019-01-22T07:18:19.121Z,87.94
2019-01-22T07:19:19.104Z,88.64
2019-01-22T07:20:19.108Z,88.36
2019-01-22T07:21:19.100Z,87.79
2019-01-22T07:22:19.073Z,88.01
2019-01-22T07:23:19.066Z,87.79
2019-01-22T07:24:19.062Z,87.05
2019-01-22T07:25:19.049Z,86.95
2019-01-22T07:26:19.026Z,86.10
2019-01-22T07:27:19.037Z,86.32
2019-01-22T07:28:19.018Z,86.38
2019-01-22T07:29:19.028Z,86.38
2019-01-22T07:30:19.019Z,86.80
2019-01-22T07:31:18.976Z,86.17
2019-01-22T07:32:18.973Z,86.17
2019-01-22T07:33:18.963Z,86.38
2019-01-22T07:34:18.964Z,86.17
2019-01-22T07:35:18.974Z,86.17
2019-01-22T07:36:18.986Z,86.49
2019-01-22T07:37:18.992Z,85.96
2019-01-22T07:38:18.899Z,85.43
2019-01-22T07:39:18.890Z,84.80
2019-01-22T07:40:18.879Z,85.01
2019-01-22T07:41:18.880Z,85.43
2019-01-22T07:42:18.865Z,85.43
2019-01-22T07:43:18.869Z,85.33
2019-01-22T07:44:18.856Z,85.22
2019-01-22T07:45:18.847Z,85.36
2019-01-22T07:46:18.845Z,85.68
2019-01-22T07:47:18.874Z,85.79
2019-01-22T07:48:18.809Z,86.17
2019-01-22T07:49:18.850Z,86.17
2019-01-22T07:50:18.797Z,85.64
2019-01-22T07:51:18.791Z,85.43
2019-01-22T07:52:18.757Z,85.33
2019-01-22T07:53:18.780Z,85.08
2019-01-22T07:54:18.779Z,84.27
2019-01-22T07:55:18.748Z,84.27
2019-01-22T07:56:18.819Z,84.38
2019-01-22T07:57:18.709Z,83.85
2019-01-22T07:58:18.712Z,83.85
2019-01-22T07:59:18.691Z,83.81
2019-01-22T08:00:18.746Z,84.27
2019-01-22T08:01:18.670Z,83.92
2019-01-22T08:02:18.668Z,83.81
2019-01-22T08:03:18.667Z,83.60
2019-01-22T08:04:18.650Z,83.50
2019-01-22T08:05:18.638Z,83.29
2019-01-22T08:06:18.667Z,83.18
2019-01-22T08:07:18.598Z,82.86
2019-01-22T08:08:18.592Z,83.07
2019-01-22T08:09:18.576Z,83.18
2019-01-22T08:10:18.623Z,83.25
2019-01-22T08:11:18.558Z,82.82
2019-01-22T08:12:18.571Z,82.58
2019-01-22T08:13:18.561Z,81.81
2019-01-22T08:14:18.529Z,82.12
2019-01-22T08:15:18.529Z,81.87
2019-01-22T08:16:18.521Z,81.24
2019-01-22T08:17:18.510Z,80.57
2019-01-22T08:18:18.519Z,79.21
2019-01-22T08:19:18.493Z,78.47
2019-01-22T08:20:18.471Z,78.58
2019-01-22T08:21:18.452Z,78.68
2019-01-22T08:22:18.449Z,78.40
2019-01-22T08:23:18.455Z,78.54
2019-01-22T08:24:18.422Z,78.61
2019-01-22T08:25:18.410Z,78.64
2019-01-22T08:26:18.420Z,78.61
2019-01-22T08:27:18.409Z,78.82
2019-01-22T08:28:18.375Z,78.78
2019-01-22T08:29:18.461Z,78.05
2019-01-22T08:30:18.356Z,78.05
2019-01-22T08:31:18.354Z,78.26
2019-01-22T08:32:18.338Z,77.17
2019-01-22T08:33:18.324Z,76.86
2019-01-22T08:34:18.311Z,76.61
2019-01-22T08:35:18.348Z,75.98
2019-01-22T08:36:18.314Z,75.91
2019-01-22T08:37:18.293Z,75.98
2019-01-22T08:38:18.309Z,75.87
2019-01-22T08:39:18.312Z,75.77
2019-01-22T08:40:18.255Z,74.90
2019-01-22T08:41:18.265Z,74.79
2019-01-22T08:42:18.240Z,74.48
2019-01-22T08:43:18.226Z,74.16
2019-01-22T08:44:18.218Z,74.05
2019-01-22T08:45:18.224Z,74.05
2019-01-22T08:46:18.211Z,73.71
2019-01-22T08:47:18.196Z,73.50
2019-01-22T08:48:18.168Z,73.43
2019-01-22T08:49:18.171Z,73.71
2019-01-22T08:50:18.173Z,73.00
2019-01-22T08:51:18.130Z,73.53
2019-01-22T08:52:18.127Z,73.43
2019-01-22T08:53:18.124Z,73.85
2019-01-22T08:54:18.118Z,73.08
2019-01-22T08:55:18.749Z,73.32
2019-01-22T08:56:18.105Z,73.53
2019-01-22T08:57:18.081Z,73.60
2019-01-22T08:58:18.076Z,73.36
2019-01-22T08:59:18.050Z,73.04
2019-01-22T09:00:18.052Z,72.38
2019-01-22T09:01:18.038Z,71.99
2019-01-22T09:02:18.008Z,71.68
2019-01-22T09:03:18.001Z,71.78
2019-01-22T09:04:18.016Z,72.76
2019-01-22T09:05:18.035Z,72.58
2019-01-22T09:06:17.990Z,72.86
2019-01-22T09:07:17.976Z,72.76
2019-01-22T09:08:17.963Z,73.08
2019-01-22T09:09:17.963Z,72.86
2019-01-22T09:10:17.939Z,72.83
2019-01-22T09:11:17.985Z,72.28
2019-01-22T09:12:17.912Z,71.72
2019-01-22T09:13:17.888Z,71.66
2019-01-22T09:14:17.886Z,70.75
2019-01-22T09:15:17.889Z,68.55
2019-01-22T09:16:17.866Z,68.63
2019-01-22T09:17:17.875Z,68.63
2019-01-22T09:18:17.877Z,66.93
2019-01-22T09:19:17.840Z,66.50
2019-01-22T09:20:17.815Z,67.13
2019-01-22T09:21:17.812Z,66.89
2019-01-22T09:22:17.848Z,65.53
2019-01-22T09:23:17.799Z,65.59
2019-01-22T09:24:17.811Z,65.88
2019-01-22T09:25:17.765Z,66.22
2019-01-22T09:26:17.761Z,65.84
2019-01-22T09:27:17.746Z,65.68
2019-01-22T09:28:18.060Z,64.53
2019-01-22T09:29:17.724Z,63.85
2019-01-22T09:30:17.725Z,63.32
2019-01-22T09:31:17.702Z,62.00
2019-01-22T09:32:17.696Z,62.96
2019-01-22T09:33:17.710Z,62.76
2019-01-22T09:34:17.692Z,63.55
2019-01-22T09:35:17.702Z,64.25
2019-01-22T09:36:17.658Z,64.46
2019-01-22T09:37:17.640Z,64.39
2019-01-22T09:38:17.636Z,63.86
2019-01-22T09:39:17.619Z,64.94
2019-01-22T09:40:17.630Z,65.70
2019-01-22T09:41:17.637Z,66.37
2019-01-22T09:42:17.584Z,65.84
2019-01-22T09:43:17.583Z,65.84
2019-01-22T09:44:17.751Z,65.64
2019-01-22T09:45:17.557Z,65.80
2019-01-22T09:46:17.545Z,66.11
2019-01-22T09:47:17.527Z,66.99
2019-01-22T09:48:17.531Z,67.82
2019-01-22T09:49:17.509Z,68.38
2019-01-22T09:50:17.509Z,68.62
2019-01-22T09:51:17.494Z,70.08
2019-01-22T09:52:17.514Z,70.61
2019-01-22T09:53:17.461Z,70.50
2019-01-22T09:54:17.471Z,70.81
2019-01-22T09:55:22.383Z,69.95
2019-01-22T09:56:18.453Z,69.84
2019-01-22T09:57:17.430Z,70.08
2019-01-22T09:58:32.405Z,69.98
2019-01-22T09:59:17.422Z,70.50
2019-01-22T10:00:17.386Z,69.88
2019-01-22T10:01:17.380Z,65.31
2019-01-22T10:02:17.390Z,59.04
2019-01-22T10:03:17.383Z,54.52
2019-01-22T10:04:17.394Z,51.53
2019-01-22T10:05:17.348Z,48.44
2019-01-22T10:06:17.352Z,46.63
2019-01-22T10:07:17.367Z,42.46
2019-01-22T10:08:17.319Z,41.55
2019-01-22T10:09:17.300Z,41.31
2019-01-22T10:10:17.288Z,40.34
2019-01-22T10:11:17.272Z,38.68
2019-01-22T10:12:17.259Z,38.48
2019-01-22T10:13:17.249Z,38.60
2019-01-22T10:14:17.272Z,38.60
2019-01-22T10:15:17.235Z,38.90
2019-01-22T10:16:17.219Z,38.60
2019-01-22T10:17:17.227Z,37.73
2019-01-22T10:18:17.219Z,36.58
2019-01-22T10:19:17.197Z,35.54
2019-01-22T10:20:17.206Z,35.25
2019-01-22T10:21:17.176Z,36.53
2019-01-22T10:22:17.158Z,37.90
2019-01-22T10:23:17.148Z,38.28
2019-01-22T10:24:17.136Z,35.47
2019-01-22T10:25:17.128Z,36.30
2019-01-22T10:26:17.133Z,36.41
2019-01-22T10:27:17.117Z,36.61
2019-01-22T10:28:17.109Z,36.92
2019-01-22T10:29:17.164Z,36.58
2019-01-22T10:30:17.058Z,34.57
2019-01-22T10:31:17.069Z,32.68
2019-01-22T10:32:17.043Z,32.77
2019-01-22T10:33:17.032Z,31.31
2019-01-22T10:34:17.047Z,30.87
2019-01-22T10:35:17.011Z,30.96
2019-01-22T10:36:17.043Z,30.02
2019-01-22T10:37:16.990Z,28.67
2019-01-22T10:38:16.976Z,28.17
2019-01-22T10:39:17.915Z,28.17
2019-01-22T10:40:16.966Z,27.92
2019-01-22T10:41:16.943Z,30.71
2019-01-22T10:42:16.983Z,30.94
2019-01-22T10:43:16.923Z,30.73
2019-01-22T10:44:16.913Z,31.24
2019-01-22T10:45:16.911Z,30.52
2019-01-22T10:46:16.895Z,31.13
2019-01-22T10:47:16.876Z,33.14
2019-01-22T10:48:16.905Z,35.79
2019-01-22T10:49:16.866Z,37.68
2019-01-22T10:50:16.841Z,39.05
2019-01-22T10:51:16.834Z,39.77
2019-01-22T10:52:16.830Z,38.62
2019-01-22T10:53:16.812Z,38.07
2019-01-22T10:54:16.829Z,36.73
2019-01-22T10:55:16.797Z,36.82
2019-01-22T10:56:16.784Z,37.09
2019-01-22T10:57:16.771Z,34.77
2019-01-22T10:58:16.767Z,34.36
2019-01-22T10:59:16.780Z,34.46
2019-01-22T11:00:16.780Z,33.71
2019-01-22T11:01:16.749Z,33.90
2019-01-22T11:02:16.741Z,32.81
2019-01-22T11:03:16.712Z,31.46
2019-01-22T11:04:16.703Z,31.57
2019-01-22T11:05:16.683Z,31.13
2019-01-22T11:06:16.671Z,30.60
2019-01-22T11:07:16.656Z,28.67
2019-01-22T11:08:16.673Z,30.04
2019-01-22T11:09:16.643Z,31.32
2019-01-22T11:10:16.654Z,32.28
2019-01-22T11:11:16.605Z,32.67
2019-01-22T11:12:16.606Z,33.40
2019-01-22T11:13:16.590Z,32.07
2019-01-22T11:14:16.582Z,32.82
2019-01-22T11:15:16.574Z,32.92
2019-01-22T11:16:16.601Z,34.25
2019-01-22T11:17:16.549Z,32.89
2019-01-22T11:18:16.536Z,32.41
2019-01-22T11:19:16.522Z,33.17
2019-01-22T11:20:16.518Z,34.56
2019-01-22T11:21:16.514Z,35.50
2019-01-22T11:22:16.504Z,36.63
2019-01-22T11:23:16.485Z,36.08
2019-01-22T11:24:16.475Z,34.92
2019-01-22T11:25:16.471Z,34.48
2019-01-22T11:26:16.448Z,34.38
2019-01-22T11:27:16.454Z,34.15
2019-01-22T11:28:16.421Z,33.95
2019-01-22T11:29:31.244Z,33.61
2019-01-22T11:30:16.415Z,32.54
2019-01-22T11:31:16.396Z,31.81
2019-01-22T11:32:16.398Z,31.63
2019-01-22T11:33:16.393Z,32.32
2019-01-22T11:34:16.350Z,31.15
2019-01-22T11:35:16.378Z,30.45
2019-01-22T11:36:16.336Z,31.18
2019-01-22T11:37:16.341Z,31.20
2019-01-22T11:38:16.308Z,31.34
2019-01-22T11:39:16.360Z,33.00
2019-01-22T11:40:16.300Z,32.87
2019-01-22T11:41:16.281Z,32.28
2019-01-22T11:42:16.292Z,32.71
2019-01-22T11:43:16.265Z,33.65
2019-01-22T11:44:16.243Z,33.95
2019-01-22T11:45:16.283Z,33.65
2019-01-22T11:46:16.227Z,33.74
2019-01-22T11:47:16.208Z,32.93
2019-01-22T11:48:16.218Z,34.41
2019-01-22T11:49:16.194Z,34.51
2019-01-22T11:50:16.187Z,34.20
2019-01-22T11:51:16.202Z,34.63
2019-01-22T11:52:16.165Z,34.75
2019-01-22T11:53:16.147Z,35.50
2019-01-22T11:54:16.147Z,36.13
2019-01-22T11:55:16.127Z,38.06
2019-01-22T11:56:16.133Z,38.78
2019-01-22T11:57:16.099Z,39.64
2019-01-22T11:58:16.091Z,39.95
2019-01-22T11:59:16.077Z,39.28
2019-01-22T12:00:16.062Z,37.55
2019-01-22T12:01:16.080Z,36.66
2019-01-22T12:02:16.069Z,34.52
2019-01-22T12:03:16.033Z,35.38
2019-01-22T12:04:16.026Z,36.85
2019-01-22T12:05:16.018Z,36.73
2019-01-22T12:06:16.000Z,36.29
2019-01-22T12:07:16.031Z,35.60
2019-01-22T12:08:15.980Z,37.19
2019-01-22T12:09:15.967Z,37.73
2019-01-22T12:10:15.962Z,38.76
2019-01-22T12:11:15.953Z,38.45
2019-01-22T12:12:15.939Z,38.04
2019-01-22T12:13:15.943Z,38.84
2019-01-22T12:14:15.913Z,36.94
2019-01-22T12:15:15.917Z,36.51
2019-01-22T12:16:15.904Z,36.96
2019-01-22T12:17:15.903Z,37.71
2019-01-22T12:18:15.875Z,38.00
2019-01-22T12:19:15.878Z,37.35
2019-01-22T12:20:15.846Z,36.94
2019-01-22T12:21:15.865Z,37.90
2019-01-22T12:22:15.830Z,38.78
2019-01-22T12:23:15.822Z,40.92
2019-01-22T12:24:15.810Z,43.27
2019-01-22T12:25:15.827Z,45.09
2019-01-22T12:26:15.790Z,46.17
2019-01-22T12:27:15.780Z,47.25
2019-01-22T12:28:15.769Z,49.37
2019-01-22T12:29:15.765Z,50.43
2019-01-22T12:30:15.751Z,50.67
2019-01-22T12:31:15.745Z,50.87
2019-01-22T12:32:15.720Z,51.61
2019-01-22T12:33:15.723Z,52.04
2019-01-22T12:34:15.698Z,52.51
2019-01-22T12:35:15.725Z,53.76
2019-01-22T12:36:15.702Z,54.28
2019-01-22T12:37:15.663Z,55.04
2019-01-22T12:38:15.652Z,53.76
2019-01-22T12:39:15.643Z,53.86
2019-01-22T12:40:15.638Z,53.86
2019-01-22T12:41:15.622Z,53.66
2019-01-22T12:42:15.671Z,53.66
2019-01-22T12:43:15.601Z,53.76
2019-01-22T12:44:15.606Z,53.86
2019-01-22T12:45:15.591Z,54.30
2019-01-22T12:46:15.561Z,55.24
2019-01-22T12:47:15.560Z,54.51
2019-01-22T12:48:15.586Z,54.53
2019-01-22T12:49:15.530Z,54.75
2019-01-22T12:50:15.531Z,55.08
2019-01-22T12:51:15.524Z,56.23
2019-01-22T12:52:15.492Z,56.02
2019-01-22T12:53:15.492Z,56.34